Terminal Aerodrome Forecast
Issued by NWS Grand Forks, ND

Home | Current Version | Previous Version | Graphics & Text | Print | Product List | Glossary On
Versions: 1 2 3 4 5 6 7 8 9 10 11 12 13 14 15 16 17 18 19 20 21 22
131
FTUS43 KFGF 112320
TAFGFK
TAF
KGFK 112320Z 1200/1224 34007KT P6SM BKN040
      TEMPO 1200/1202 BKN022
     FM120300 34010KT P6SM SCT050
     FM120900 35013G18KT P6SM FEW200
     FM122200 35012KT P6SM FEW200=

USA.gov is the U.S. government's official web portal to all federal, state and local government web resources and services.